createdAt,value
2019-05-19T00:00:37.322Z,99.90
2019-05-19T00:03:06.927Z,99.90
2019-05-19T00:05:36.259Z,99.90
2019-05-19T00:08:05.589Z,99.90
2019-05-19T00:10:35.330Z,99.90
2019-05-19T00:13:04.656Z,99.90
2019-05-19T00:15:33.969Z,99.90
2019-05-19T00:18:03.524Z,99.90
2019-05-19T00:20:33.061Z,99.90
2019-05-19T00:23:02.550Z,99.90
2019-05-19T00:25:32.372Z,99.90
2019-05-19T00:28:02.277Z,99.90
2019-05-19T00:30:31.583Z,99.90
2019-05-19T00:33:01.185Z,99.90
2019-05-19T00:35:30.518Z,99.90
2019-05-19T00:37:59.839Z,99.90
2019-05-19T00:40:29.141Z,99.90
2019-05-19T00:42:58.795Z,99.90
2019-05-19T00:45:28.519Z,99.90
2019-05-19T00:47:58.223Z,99.90
2019-05-19T00:50:27.828Z,99.90
2019-05-19T00:52:57.138Z,99.90
2019-05-19T00:55:26.622Z,99.90
2019-05-19T00:57:57.861Z,99.90
2019-05-19T01:00:27.160Z,99.90
2019-05-19T01:02:56.471Z,99.90
2019-05-19T01:05:25.767Z,99.90
2019-05-19T01:07:55.091Z,99.90
2019-05-19T01:10:24.529Z,99.90
2019-05-19T01:12:53.845Z,99.90
2019-05-19T01:15:23.301Z,99.90
2019-05-19T01:17:52.614Z,99.90
2019-05-19T01:20:22.092Z,99.90
2019-05-19T01:22:51.405Z,99.90
2019-05-19T01:25:20.750Z,99.90
2019-05-19T01:28:06.787Z,99.90
2019-05-19T01:30:36.156Z,99.90
2019-05-19T01:33:05.467Z,99.90
2019-05-19T01:35:34.770Z,99.90
2019-05-19T01:38:04.100Z,99.90
2019-05-19T01:40:33.396Z,99.90
2019-05-19T01:43:02.711Z,99.90
2019-05-19T01:45:32.034Z,99.90
2019-05-19T01:48:01.361Z,99.90
2019-05-19T01:50:33.627Z,99.90
2019-05-19T01:53:02.952Z,99.90
2019-05-19T01:55:32.265Z,99.90
2019-05-19T01:58:01.600Z,99.90
2019-05-19T02:00:30.905Z,99.90
2019-05-19T02:03:00.219Z,99.90
2019-05-19T02:05:29.841Z,99.90
2019-05-19T02:07:59.165Z,99.90
2019-05-19T02:10:28.469Z,99.90
2019-05-19T02:12:57.785Z,99.90
2019-05-19T02:15:27.101Z,99.90
2019-05-19T02:17:56.430Z,99.90
2019-05-19T02:20:33.103Z,99.90
2019-05-19T02:22:59.597Z,99.90
2019-05-19T02:25:28.920Z,99.90
2019-05-19T02:27:58.249Z,99.90
2019-05-19T02:30:27.555Z,99.90
2019-05-19T02:32:56.882Z,99.90
2019-05-19T02:35:26.187Z,99.90
2019-05-19T02:37:55.576Z,99.90
2019-05-19T02:40:25.018Z,99.90
2019-05-19T02:42:56.666Z,99.90
2019-05-19T02:45:30.936Z,99.90
2019-05-19T02:48:02.979Z,99.90
2019-05-19T02:50:50.856Z,99.90
2019-05-19T02:53:08.628Z,99.90
2019-05-19T02:55:39.195Z,99.90
2019-05-19T02:58:09.341Z,99.90
2019-05-19T03:00:42.093Z,99.90
2019-05-19T03:03:11.488Z,99.90
2019-05-19T03:05:40.808Z,99.90
2019-05-19T03:08:10.107Z,99.90
2019-05-19T03:10:39.444Z,99.90
2019-05-19T03:13:08.788Z,99.90
2019-05-19T03:15:38.139Z,99.90
2019-05-19T03:18:07.441Z,99.90
2019-05-19T03:20:36.748Z,99.90
2019-05-19T03:23:06.093Z,99.90
2019-05-19T03:25:35.407Z,99.90
2019-05-19T03:28:04.713Z,99.90
2019-05-19T03:30:44.957Z,99.90
2019-05-19T03:33:15.909Z,99.90
2019-05-19T03:35:45.249Z,99.90
2019-05-19T03:38:14.604Z,99.90
2019-05-19T03:40:43.928Z,99.90
2019-05-19T03:43:13.238Z,99.90
2019-05-19T03:45:42.551Z,99.90
2019-05-19T03:48:11.881Z,99.90
2019-05-19T03:50:42.205Z,99.90
2019-05-19T03:53:11.758Z,99.90
2019-05-19T03:55:41.385Z,99.90
2019-05-19T03:58:10.959Z,99.90
2019-05-19T04:00:40.408Z,99.90
2019-05-19T04:03:10.060Z,99.90
2019-05-19T04:05:39.695Z,99.90
2019-05-19T04:08:09.292Z,99.90
2019-05-19T04:10:38.618Z,99.90
2019-05-19T04:13:07.960Z,99.90
2019-05-19T04:15:37.300Z,99.90
2019-05-19T04:18:06.650Z,99.90
2019-05-19T04:20:36.197Z,99.90
2019-05-19T04:23:05.887Z,99.90
2019-05-19T04:25:35.208Z,99.90
2019-05-19T04:28:04.960Z,99.90
2019-05-19T04:30:34.220Z,99.90
2019-05-19T04:33:03.549Z,99.90
2019-05-19T04:35:33.201Z,99.90
2019-05-19T04:38:02.517Z,99.90
2019-05-19T04:40:32.120Z,99.90
2019-05-19T04:43:01.457Z,99.90
2019-05-19T04:45:30.762Z,99.90
2019-05-19T04:48:00.089Z,99.90
2019-05-19T04:50:29.388Z,99.90
2019-05-19T04:52:58.704Z,99.90
2019-05-19T04:55:28.013Z,99.90
2019-05-19T04:57:57.630Z,99.90
2019-05-19T05:00:26.962Z,99.90
2019-05-19T05:02:56.286Z,99.90
2019-05-19T05:05:25.842Z,99.90
2019-05-19T05:07:55.177Z,99.90
2019-05-19T05:10:24.748Z,99.90
2019-05-19T05:12:54.343Z,99.90
2019-05-19T05:15:23.675Z,99.90
2019-05-19T05:17:52.985Z,99.90
2019-05-19T05:20:22.292Z,99.90
2019-05-19T05:22:51.607Z,99.90
2019-05-19T05:25:20.935Z,99.90
2019-05-19T05:27:50.258Z,99.90
2019-05-19T05:30:19.627Z,99.90
2019-05-19T05:32:48.950Z,99.90
2019-05-19T05:35:18.305Z,99.90
2019-05-19T05:37:47.659Z,99.90
2019-05-19T05:40:17.340Z,99.90
2019-05-19T05:42:46.716Z,99.90
2019-05-19T05:45:16.173Z,99.90
2019-05-19T05:47:45.492Z,99.90
2019-05-19T05:50:15.282Z,99.90
2019-05-19T05:52:44.586Z,99.90
2019-05-19T05:55:14.084Z,99.90
2019-05-19T05:57:43.402Z,99.90
2019-05-19T06:00:15.856Z,99.90
2019-05-19T06:02:44.280Z,99.90
2019-05-19T06:05:13.731Z,99.90
2019-05-19T06:07:43.070Z,99.90
2019-05-19T06:10:13.055Z,99.90
2019-05-19T06:12:42.371Z,99.90
2019-05-19T06:15:12.711Z,99.90
2019-05-19T06:17:42.027Z,99.90
2019-05-19T06:20:11.471Z,99.90
2019-05-19T06:22:55.254Z,99.90
2019-05-19T06:25:12.055Z,99.90
2019-05-19T06:27:41.379Z,99.90
2019-05-19T06:30:11.765Z,99.90
2019-05-19T06:32:42.723Z,99.90
2019-05-19T06:35:12.570Z,99.90
2019-05-19T06:37:42.218Z,99.90
2019-05-19T06:40:13.920Z,99.90
2019-05-19T06:42:43.704Z,99.90
2019-05-19T06:45:14.635Z,99.90
2019-05-19T06:47:44.013Z,99.90
2019-05-19T06:50:14.255Z,99.90
2019-05-19T06:52:43.584Z,99.90
2019-05-19T06:55:13.244Z,99.90
2019-05-19T06:57:42.571Z,99.90
2019-05-19T07:00:13.583Z,99.90
2019-05-19T07:02:42.897Z,99.90
2019-05-19T07:05:12.774Z,99.90
2019-05-19T07:07:43.027Z,99.90
2019-05-19T07:10:12.647Z,99.90
2019-05-19T07:12:41.950Z,99.90
2019-05-19T07:15:12.372Z,99.90
2019-05-19T07:17:41.693Z,99.90
2019-05-19T07:20:11.473Z,99.90
2019-05-19T07:22:40.806Z,99.90
2019-05-19T07:25:10.625Z,99.90
2019-05-19T07:27:39.950Z,99.90
2019-05-19T07:30:10.114Z,99.90
2019-05-19T07:32:39.420Z,99.90
2019-05-19T07:35:09.651Z,99.90
2019-05-19T07:37:39.517Z,99.90
2019-05-19T07:40:10.383Z,99.90
2019-05-19T07:42:39.711Z,99.90
2019-05-19T07:45:11.447Z,99.90
2019-05-19T07:47:40.790Z,99.90
2019-05-19T07:50:10.688Z,99.90
2019-05-19T07:52:39.990Z,99.90
2019-05-19T07:55:09.602Z,99.90
2019-05-19T07:57:38.950Z,99.90
2019-05-19T08:00:09.372Z,99.90
2019-05-19T08:02:38.966Z,99.90
2019-05-19T08:05:08.692Z,99.90
2019-05-19T08:07:38.187Z,99.90
2019-05-19T08:10:08.367Z,99.90
2019-05-19T08:12:37.688Z,99.90
2019-05-19T08:15:08.815Z,99.90
2019-05-19T08:17:38.121Z,99.90
2019-05-19T08:20:11.156Z,99.90
2019-05-19T08:22:40.468Z,99.90
2019-05-19T08:25:10.064Z,99.90
2019-05-19T08:27:39.398Z,99.90
2019-05-19T08:30:09.723Z,99.90
2019-05-19T08:32:39.039Z,99.90
2019-05-19T08:35:08.491Z,99.90
2019-05-19T08:37:37.827Z,99.90
2019-05-19T08:40:08.059Z,99.90
2019-05-19T08:42:37.386Z,99.90
2019-05-19T08:45:08.409Z,99.90
2019-05-19T08:47:38.109Z,99.90
2019-05-19T08:50:07.995Z,99.90
2019-05-19T08:52:37.589Z,99.90
2019-05-19T08:55:08.119Z,99.90
2019-05-19T08:57:37.424Z,99.90
2019-05-19T09:00:09.194Z,99.90
2019-05-19T09:02:38.516Z,99.90
2019-05-19T09:05:08.402Z,99.90
2019-05-19T09:07:37.737Z,99.90
2019-05-19T09:10:09.309Z,99.90
2019-05-19T09:12:38.780Z,99.90
2019-05-19T09:15:09.794Z,99.90
2019-05-19T09:17:39.137Z,99.90
2019-05-19T09:20:08.524Z,99.90
2019-05-19T09:22:37.839Z,99.90
2019-05-19T09:25:08.615Z,99.90
2019-05-19T09:27:39.560Z,99.90
2019-05-19T09:30:12.357Z,99.90
2019-05-19T09:32:41.672Z,99.90
2019-05-19T09:35:11.336Z,99.90
2019-05-19T09:37:40.926Z,99.90
2019-05-19T09:40:11.404Z,99.90
2019-05-19T09:42:40.789Z,99.90
2019-05-19T09:45:11.139Z,99.90
2019-05-19T09:47:41.105Z,99.90
2019-05-19T09:50:11.510Z,99.90
2019-05-19T09:52:40.748Z,99.90
2019-05-19T09:55:11.136Z,99.90
2019-05-19T09:57:40.404Z,99.90
2019-05-19T10:00:10.750Z,99.90
2019-05-19T10:02:40.071Z,99.90
2019-05-19T10:05:10.703Z,99.90
2019-05-19T10:07:40.008Z,99.90
2019-05-19T10:10:19.015Z,99.90
2019-05-19T10:12:48.585Z,99.90
2019-05-19T10:15:17.968Z,99.90
2019-05-19T10:17:47.270Z,99.90
2019-05-19T10:20:17.612Z,99.90
2019-05-19T10:22:46.923Z,99.90
2019-05-19T10:25:22.190Z,99.90
2019-05-19T10:27:48.385Z,99.90
2019-05-19T10:30:18.119Z,99.90
2019-05-19T10:32:47.462Z,99.90
2019-05-19T10:35:16.783Z,99.90
2019-05-19T10:37:46.740Z,99.90
2019-05-19T10:40:16.564Z,99.90
2019-05-19T10:42:45.877Z,99.90
2019-05-19T10:45:15.823Z,99.90
2019-05-19T10:47:45.134Z,99.90
2019-05-19T10:50:15.350Z,99.90
2019-05-19T10:52:44.720Z,99.90
2019-05-19T10:55:14.307Z,99.90
2019-05-19T10:57:43.640Z,99.90
2019-05-19T11:00:13.173Z,99.90
2019-05-19T11:02:42.507Z,99.90
2019-05-19T11:05:12.087Z,99.90
2019-05-19T11:07:41.377Z,99.90
2019-05-19T11:10:11.408Z,99.90
2019-05-19T11:12:40.707Z,99.90
2019-05-19T11:15:11.230Z,99.90
2019-05-19T11:17:40.565Z,99.90
2019-05-19T11:20:10.027Z,99.90
2019-05-19T11:23:17.637Z,99.90
2019-05-19T11:25:51.583Z,99.90
2019-05-19T11:28:20.655Z,99.90
2019-05-19T11:30:50.249Z,99.90
2019-05-19T11:33:19.540Z,99.90
2019-05-19T11:35:48.864Z,99.90
2019-05-19T11:38:18.179Z,99.90
2019-05-19T11:40:47.511Z,99.90
2019-05-19T11:43:16.809Z,99.90
2019-05-19T11:45:46.138Z,99.90
2019-05-19T11:48:15.454Z,99.90
2019-05-19T11:50:45.035Z,99.90
2019-05-19T11:53:14.344Z,99.90
2019-05-19T11:55:43.652Z,99.90
2019-05-19T11:58:13.235Z,99.90
2019-05-19T12:00:42.560Z,99.90
2019-05-19T12:03:12.148Z,99.90
2019-05-19T12:05:41.767Z,99.90
2019-05-19T12:08:11.085Z,99.80
2019-05-19T12:10:40.680Z,99.90
2019-05-19T12:13:09.988Z,99.80
2019-05-19T12:15:39.334Z,97.50
2019-05-19T12:18:08.653Z,96.60
2019-05-19T12:20:37.989Z,97.00
2019-05-19T12:23:07.297Z,95.90
2019-05-19T12:25:36.663Z,98.20
2019-05-19T12:28:06.047Z,95.80
2019-05-19T12:30:35.374Z,93.90
2019-05-19T12:33:04.681Z,93.90
2019-05-19T12:35:33.993Z,95.60
2019-05-19T12:38:03.299Z,92.90
2019-05-19T12:40:32.608Z,91.30
2019-05-19T12:43:03.838Z,91.60
2019-05-19T12:45:34.215Z,91.60
2019-05-19T12:48:03.812Z,92.00
2019-05-19T12:50:33.190Z,90.20
2019-05-19T12:53:02.504Z,93.20
2019-05-19T12:55:32.175Z,90.10
2019-05-19T12:58:01.504Z,91.40
2019-05-19T13:00:32.526Z,89.90
2019-05-19T13:03:02.088Z,88.80
2019-05-19T13:05:32.992Z,89.20
2019-05-19T13:08:02.700Z,85.60
2019-05-19T13:10:32.020Z,88.10
2019-05-19T13:13:01.338Z,90.50
2019-05-19T13:15:30.658Z,88.10
2019-05-19T13:18:00.281Z,88.10
2019-05-19T13:20:29.595Z,88.00
2019-05-19T13:22:58.939Z,87.20
2019-05-19T13:25:28.317Z,82.40
2019-05-19T13:27:57.628Z,84.30
2019-05-19T13:30:27.089Z,83.00
2019-05-19T13:32:56.492Z,77.10
2019-05-19T13:35:26.076Z,81.50
2019-05-19T13:37:55.393Z,82.00
2019-05-19T13:40:24.699Z,84.50
2019-05-19T13:42:54.030Z,79.20
2019-05-19T13:45:23.983Z,83.10
2019-05-19T13:47:53.343Z,78.60
2019-05-19T13:50:23.000Z,79.60
2019-05-19T13:52:52.361Z,79.60
2019-05-19T13:55:21.691Z,77.80
2019-05-19T13:57:51.033Z,80.30
2019-05-19T14:00:21.233Z,74.70
2019-05-19T14:02:50.547Z,76.30
2019-05-19T14:05:19.863Z,77.00
2019-05-19T14:07:49.169Z,72.00
2019-05-19T14:10:18.521Z,70.70
2019-05-19T14:12:48.155Z,71.50
2019-05-19T14:15:17.839Z,68.70
2019-05-19T14:17:47.149Z,70.60
2019-05-19T14:20:16.586Z,69.50
2019-05-19T14:22:45.909Z,70.60
2019-05-19T14:25:15.564Z,71.90
2019-05-19T14:27:44.868Z,67.20
2019-05-19T14:30:15.093Z,65.10
2019-05-19T14:32:44.717Z,70.90
2019-05-19T14:35:14.030Z,68.80
2019-05-19T14:37:43.344Z,68.20
2019-05-19T14:40:14.659Z,66.50
2019-05-19T14:42:45.609Z,63.30
2019-05-19T14:45:16.040Z,65.20
2019-05-19T14:47:45.329Z,63.20
2019-05-19T14:50:14.796Z,59.60
2019-05-19T14:52:44.116Z,62.20
2019-05-19T14:55:13.914Z,61.90
2019-05-19T14:57:45.462Z,65.70
2019-05-19T15:00:17.363Z,68.40
2019-05-19T15:02:46.936Z,70.40
2019-05-19T15:05:16.397Z,72.20
2019-05-19T15:07:45.682Z,74.70
2019-05-19T15:10:16.504Z,77.30
2019-05-19T15:12:46.104Z,77.80
2019-05-19T15:15:15.978Z,81.50
2019-05-19T15:17:45.607Z,83.30
2019-05-19T15:20:16.724Z,87.80
2019-05-19T15:22:46.079Z,88.30
2019-05-19T15:25:16.282Z,92.90
2019-05-19T15:27:59.346Z,94.00
2019-05-19T15:30:18.082Z,94.40
2019-05-19T15:32:47.663Z,96.20
2019-05-19T15:35:17.022Z,97.00
2019-05-19T15:37:46.355Z,96.70
2019-05-19T15:40:16.160Z,97.10
2019-05-19T15:42:45.521Z,97.80
2019-05-19T15:45:15.477Z,98.60
2019-05-19T15:47:44.850Z,99.90
2019-05-19T15:50:17.361Z,99.90
2019-05-19T15:52:46.843Z,99.90
2019-05-19T15:55:17.847Z,99.90
2019-05-19T15:57:47.169Z,99.90
2019-05-19T16:00:16.969Z,99.90
2019-05-19T16:02:46.554Z,99.90
2019-05-19T16:05:18.898Z,99.90
2019-05-19T16:07:49.028Z,99.90
2019-05-19T16:10:18.473Z,99.90
2019-05-19T16:12:48.023Z,99.90
2019-05-19T16:15:17.614Z,99.90
2019-05-19T16:17:46.920Z,99.90
2019-05-19T16:20:16.424Z,99.90
2019-05-19T16:22:45.877Z,99.90
2019-05-19T16:25:15.313Z,99.90
2019-05-19T16:27:44.643Z,99.90
2019-05-19T16:30:15.702Z,99.90
2019-05-19T16:32:50.856Z,99.90
2019-05-19T16:35:20.160Z,99.90
2019-05-19T16:37:49.560Z,99.90
2019-05-19T16:40:19.184Z,99.90
2019-05-19T16:43:08.109Z,99.90
2019-05-19T16:45:37.421Z,99.90
2019-05-19T16:48:06.798Z,99.90
2019-05-19T16:50:36.116Z,99.90
2019-05-19T16:53:07.182Z,99.90
2019-05-19T16:55:36.480Z,99.90
2019-05-19T16:58:20.214Z,99.90
2019-05-19T17:00:40.360Z,99.90
2019-05-19T17:03:09.696Z,99.90
2019-05-19T17:05:42.161Z,99.90
2019-05-19T17:08:12.992Z,99.90
2019-05-19T17:10:42.323Z,99.90
2019-05-19T17:13:11.648Z,99.90
2019-05-19T17:15:40.993Z,99.90
2019-05-19T17:18:10.304Z,99.90
2019-05-19T17:20:39.633Z,99.90
2019-05-19T17:23:08.996Z,99.90
2019-05-19T17:25:38.284Z,99.90
2019-05-19T17:28:07.599Z,99.90
2019-05-19T17:30:36.933Z,99.90
2019-05-19T17:33:08.946Z,99.90
2019-05-19T17:35:41.306Z,99.90
2019-05-19T17:38:11.749Z,99.90
2019-05-19T17:40:41.053Z,99.90
2019-05-19T17:43:10.374Z,99.90
2019-05-19T17:45:39.689Z,99.90
2019-05-19T17:48:11.754Z,99.90
2019-05-19T17:50:40.063Z,99.90
2019-05-19T17:53:09.384Z,99.90
2019-05-19T17:55:39.060Z,99.90
2019-05-19T17:58:08.359Z,99.90
2019-05-19T18:00:41.050Z,99.90
2019-05-19T18:03:11.117Z,99.90
2019-05-19T18:05:40.485Z,99.90
2019-05-19T18:08:10.189Z,99.90
2019-05-19T18:10:39.479Z,99.90
2019-05-19T18:13:08.852Z,99.90
2019-05-19T18:15:38.173Z,99.90
2019-05-19T18:18:07.510Z,99.90
2019-05-19T18:20:36.840Z,99.90
2019-05-19T18:23:06.401Z,99.90
2019-05-19T18:25:35.844Z,99.90
2019-05-19T18:28:05.147Z,99.90
2019-05-19T18:30:34.719Z,99.90
2019-05-19T18:33:04.040Z,99.90
2019-05-19T18:35:33.618Z,99.90
2019-05-19T18:38:02.929Z,99.90
2019-05-19T18:40:32.238Z,99.90
2019-05-19T18:43:01.546Z,99.90
2019-05-19T18:45:31.133Z,99.90
2019-05-19T18:48:00.434Z,99.90
2019-05-19T18:50:30.045Z,99.90
2019-05-19T18:53:05.133Z,99.90
2019-05-19T18:55:34.785Z,99.90
2019-05-19T18:58:04.097Z,99.90
2019-05-19T19:00:36.870Z,99.90
2019-05-19T19:03:06.784Z,99.90
2019-05-19T19:05:36.107Z,99.90
2019-05-19T19:08:05.418Z,99.90
2019-05-19T19:10:34.749Z,99.90
2019-05-19T19:13:04.056Z,99.90
2019-05-19T19:15:33.369Z,99.90
2019-05-19T19:18:02.708Z,99.90
2019-05-19T19:20:32.401Z,99.90
2019-05-19T19:23:01.721Z,99.90
2019-05-19T19:25:31.043Z,99.90
2019-05-19T19:28:00.361Z,99.90
2019-05-19T19:30:30.508Z,99.90
2019-05-19T19:32:59.841Z,99.90
2019-05-19T19:35:38.290Z,99.90
2019-05-19T19:38:00.204Z,99.90
2019-05-19T19:40:31.738Z,99.90
2019-05-19T19:43:01.875Z,99.90
2019-05-19T19:45:31.839Z,99.90
2019-05-19T19:48:01.260Z,99.90
2019-05-19T19:50:30.701Z,99.90
2019-05-19T19:53:00.355Z,99.90
2019-05-19T19:55:29.678Z,99.90
2019-05-19T19:57:59.671Z,99.90
2019-05-19T20:00:42.131Z,99.90
2019-05-19T20:03:11.518Z,99.90
2019-05-19T20:05:42.817Z,99.90
2019-05-19T20:08:12.748Z,99.90
2019-05-19T20:10:42.139Z,99.90
2019-05-19T20:13:11.471Z,99.90
2019-05-19T20:15:40.799Z,99.90
2019-05-19T20:18:10.357Z,99.90
2019-05-19T20:20:39.665Z,99.90
2019-05-19T20:23:09.249Z,99.90
2019-05-19T20:25:38.583Z,99.90
2019-05-19T20:28:07.908Z,99.90
2019-05-19T20:30:37.482Z,99.90
2019-05-19T20:33:06.917Z,99.90
2019-05-19T20:35:36.233Z,99.90
2019-05-19T20:38:05.625Z,99.90
2019-05-19T20:40:34.990Z,99.90
2019-05-19T20:43:04.569Z,99.90
2019-05-19T20:45:34.556Z,99.90
2019-05-19T20:48:04.034Z,99.90
2019-05-19T20:50:33.352Z,99.90
2019-05-19T20:53:02.696Z,99.90
2019-05-19T20:55:32.279Z,99.90
2019-05-19T20:58:01.926Z,99.90
2019-05-19T21:00:34.015Z,99.90
2019-05-19T21:03:03.342Z,99.90
2019-05-19T21:05:32.722Z,99.90
2019-05-19T21:08:02.042Z,99.90
2019-05-19T21:10:31.356Z,99.90
2019-05-19T21:13:00.675Z,99.90
2019-05-19T21:15:30.240Z,99.90
2019-05-19T21:17:59.818Z,99.90
2019-05-19T21:20:29.174Z,99.90
2019-05-19T21:22:58.787Z,99.90
2019-05-19T21:25:28.124Z,99.90
2019-05-19T21:27:57.671Z,99.90
2019-05-19T21:30:27.004Z,99.90
2019-05-19T21:32:56.322Z,99.90
2019-05-19T21:35:25.897Z,99.90
2019-05-19T21:37:55.207Z,99.90
2019-05-19T21:40:24.767Z,99.90
2019-05-19T21:42:54.082Z,99.90
2019-05-19T21:45:23.499Z,99.90
2019-05-19T21:47:52.856Z,99.90
2019-05-19T21:50:22.209Z,99.90
2019-05-19T21:52:51.589Z,99.90
2019-05-19T21:55:20.910Z,99.90
2019-05-19T21:57:50.214Z,99.90
2019-05-19T22:00:22.222Z,99.90
2019-05-19T22:02:51.514Z,99.90
2019-05-19T22:05:20.846Z,99.90
2019-05-19T22:07:54.731Z,99.90
2019-05-19T22:10:24.054Z,99.90
2019-05-19T22:12:53.410Z,99.90
2019-05-19T22:15:22.766Z,99.90
2019-05-19T22:17:52.117Z,99.90
2019-05-19T22:20:21.542Z,99.90
2019-05-19T22:22:50.902Z,99.90
2019-05-19T22:25:20.556Z,99.90
2019-05-19T22:27:50.099Z,99.90
2019-05-19T22:30:19.645Z,99.90
2019-05-19T22:32:49.282Z,99.90
2019-05-19T22:35:19.033Z,99.90
2019-05-19T22:37:48.612Z,99.90
2019-05-19T22:40:18.144Z,99.90
2019-05-19T22:42:47.482Z,99.90
2019-05-19T22:45:17.400Z,99.90
2019-05-19T22:47:46.763Z,99.90
2019-05-19T22:50:16.298Z,99.90
2019-05-19T22:52:45.637Z,99.90
2019-05-19T22:55:15.335Z,99.90
2019-05-19T22:57:44.652Z,99.90
2019-05-19T23:00:16.721Z,99.90
2019-05-19T23:02:46.068Z,99.90
2019-05-19T23:05:16.384Z,99.90
2019-05-19T23:07:45.706Z,99.90
2019-05-19T23:10:15.868Z,99.90
2019-05-19T23:12:45.293Z,99.90
2019-05-19T23:15:15.879Z,99.90
2019-05-19T23:17:45.265Z,99.90
2019-05-19T23:20:15.917Z,99.90
2019-05-19T23:22:51.440Z,99.90
2019-05-19T23:25:20.999Z,99.90
2019-05-19T23:27:50.387Z,99.90
2019-05-19T23:30:20.190Z,99.90
2019-05-19T23:32:49.556Z,99.90
2019-05-19T23:35:18.934Z,99.90
2019-05-19T23:37:48.682Z,99.90
2019-05-19T23:40:44.466Z,99.90
2019-05-19T23:45:59.177Z,99.90
2019-05-19T23:48:28.661Z,99.90
2019-05-19T23:50:57.985Z,99.90
2019-05-19T23:53:27.354Z,99.90
2019-05-19T23:55:56.678Z,99.90
2019-05-19T23:58:26.288Z,99.90
